Time;durP1;ratioP1;P1;durP2;ratioP2;P2;SDS_P1;SDS_P2;PMS_P1;PMS_P2;Temp;Humidity;BMP_temperature;BMP_pressure;BME280_temperature;BME280_humidity;BME280_pressure;Samples;Min_cycle;Max_cycle;Signal;HPM_P1;HPM_P2
2022/03/10 00:00:01;;;;;;;26.05;13.43;;;;;;;-4.52;86.45;101075.89;1748618;81;21199;-86
2022/03/10 00:02:27;;;;;;;23.52;12.40;;;;;;;-4.54;86.55;101074.53;1748098;81;21115;-88
2022/03/10 00:04:53;;;;;;;22.47;12.93;;;;;;;-4.55;86.86;101077.94;1749925;81;20952;-86
2022/03/10 00:07:20;;;;;;;29.20;13.43;;;;;;;-4.57;86.96;101079.56;1723211;82;21004;-87
2022/03/10 00:09:47;;;;;;;30.90;15.07;;;;;;;-4.57;86.86;101085.13;1750225;81;21029;-85
2022/03/10 00:12:16;;;;;;;33.67;17.23;;;;;;;-4.61;86.44;101085.81;1748573;81;20906;-86
2022/03/10 00:14:43;;;;;;;37.07;17.23;;;;;;;-4.65;85.78;101086.09;1749228;81;21226;-86
2022/03/10 00:17:10;;;;;;;35.83;16.87;;;;;;;-4.76;84.74;101088.63;1748912;81;21076;-85
2022/03/10 00:19:37;;;;;;;32.67;16.60;;;;;;;-4.82;84.12;101096.11;1745130;81;21103;-87
2022/03/10 00:22:04;;;;;;;29.87;14.60;;;;;;;-4.90;84.17;101100.53;1749234;81;21006;-88
2022/03/10 00:24:31;;;;;;;26.33;13.17;;;;;;;-4.98;83.41;101105.75;1748449;81;21056;-86
2022/03/10 00:26:57;;;;;;;30.77;12.93;;;;;;;-5.08;81.45;101107.48;1749467;81;20989;-87
2022/03/10 00:29:25;;;;;;;21.97;11.90;;;;;;;-5.15;80.81;101108.05;1747573;79;20890;-86
2022/03/10 00:31:53;;;;;;;27.50;11.50;;;;;;;-5.19;80.29;101113.86;1748120;80;21052;-84
2022/03/10 00:34:19;;;;;;;23.53;10.93;;;;;;;-5.27;78.63;101113.12;1747129;79;21005;-86
2022/03/10 00:36:45;;;;;;;18.63;10.17;;;;;;;-5.33;77.84;101116.70;1747067;81;21134;-88
2022/03/10 00:39:12;;;;;;;19.97;10.30;;;;;;;-5.42;77.48;101107.33;1751455;81;21004;-87
2022/03/10 00:41:39;;;;;;;23.33;9.50;;;;;;;-5.49;77.27;101104.89;1748153;81;21563;-87
2022/03/10 00:44:06;;;;;;;20.40;10.83;;;;;;;-5.54;77.38;101111.94;1749748;81;22118;-86
2022/03/10 00:46:33;;;;;;;24.43;11.07;;;;;;;-5.59;76.94;101109.55;1749179;79;21119;-85
2022/03/10 01:26:16;;;;;;;13.77;6.97;;;;;;;-6.12;68.34;101153.42;1770849;76;21386;-87
2022/03/10 01:28:44;;;;;;;17.20;7.53;;;;;;;-6.20;68.50;101159.00;1778307;78;21621;-86
2022/03/10 01:31:10;;;;;;;15.90;7.07;;;;;;;-6.30;68.38;101157.69;1748299;81;21094;-87
2022/03/10 01:33:37;;;;;;;17.10;7.03;;;;;;;-6.40;68.02;101163.16;1769687;79;21305;-88
2022/03/10 01:36:05;;;;;;;13.13;6.17;;;;;;;-6.45;68.19;101165.51;1747064;78;21045;-88
2022/03/10 01:38:31;;;;;;;9.77;6.00;;;;;;;-6.57;68.07;101168.36;1758457;78;21021;-86
2022/03/10 01:40:58;;;;;;;12.13;5.77;;;;;;;-6.65;68.24;101179.91;1750754;78;21029;-84
2022/03/10 01:43:24;;;;;;;14.23;6.30;;;;;;;-6.75;68.38;101176.42;1774606;78;21061;-86
2022/03/10 01:45:51;;;;;;;14.67;5.47;;;;;;;-6.84;68.59;101182.37;1776777;79;21192;-87
2022/03/10 01:48:17;;;;;;;13.60;5.97;;;;;;;-6.90;68.87;101184.62;1768831;78;21056;-86
2022/03/10 01:50:44;;;;;;;14.67;6.67;;;;;;;-6.96;69.11;101188.63;1766521;80;21167;-87
2022/03/10 01:53:11;;;;;;;10.90;5.53;;;;;;;-7.02;69.36;101198.55;1776157;81;21037;-86
2022/03/10 01:55:37;;;;;;;15.60;6.50;;;;;;;-7.07;69.20;101196.17;1766514;80;21549;-87
2022/03/10 01:58:04;;;;;;;14.03;6.63;;;;;;;-7.10;70.22;101201.14;1753565;80;21196;-86
2022/03/10 02:00:33;;;;;;;14.83;6.37;;;;;;;-7.12;69.73;101209.14;1752259;80;21018;-86
2022/03/10 02:03:01;;;;;;;16.43;6.97;;;;;;;-7.18;69.63;101208.81;1743863;81;20979;-87
2022/03/10 02:05:31;;;;;;;18.37;6.23;;;;;;;-7.19;69.82;101204.52;1832329;77;20973;-86
2022/03/10 02:10:43;;;;;;;11.80;5.07;;;;;;;-7.24;70.30;101214.92;1831519;77;21276;-85
2022/03/10 02:13:12;;;;;;;11.80;5.40;;;;;;;-7.28;70.35;101221.95;1832263;77;21047;-86
2022/03/10 02:18:26;;;;;;;14.00;6.23;;;;;;;-7.33;70.56;101228.52;1814347;77;21097;-86
2022/03/10 02:20:53;;;;;;;19.37;6.80;;;;;;;-7.38;70.66;101228.27;1839250;78;21031;-85
2022/03/10 02:23:19;;;;;;;14.43;6.20;;;;;;;-7.43;71.11;101236.98;1835944;77;21207;-88
2022/03/10 02:25:46;;;;;;;12.60;6.27;;;;;;;-7.43;71.13;101230.59;1838727;78;20968;-86
2022/03/10 02:28:13;;;;;;;14.70;6.37;;;;;;;-7.45;71.54;101240.27;1826827;78;21059;-86
2022/03/10 02:30:40;;;;;;;12.73;6.53;;;;;;;-7.54;71.89;101246.17;1823064;78;21023;-86
2022/03/10 02:33:06;;;;;;;15.83;7.10;;;;;;;-7.57;72.03;101242.15;1831653;78;20941;-87
2022/03/10 02:35:33;;;;;;;15.33;6.40;;;;;;;-7.62;72.43;101256.84;1837524;78;21247;-86
2022/03/10 02:38:02;;;;;;;14.37;5.93;;;;;;;-7.64;72.71;101257.56;1830187;78;20972;-87
2022/03/10 02:40:28;;;;;;;13.53;7.00;;;;;;;-7.67;72.80;101253.56;1834276;78;21003;-87
2022/03/10 02:42:57;;;;;;;15.00;7.47;;;;;;;-7.74;73.26;101266.42;1838649;77;20988;-87
2022/03/10 02:45:23;;;;;;;15.67;7.07;;;;;;;-7.76;73.51;101270.97;1839537;77;21007;-85
2022/03/10 02:47:50;;;;;;;16.27;7.23;;;;;;;-7.81;73.69;101265.20;1821207;78;21138;-87
2022/03/10 02:50:18;;;;;;;13.03;7.30;;;;;;;-7.82;73.87;101266.01;1831764;78;21515;-87
2022/03/10 02:52:44;;;;;;;12.80;6.83;;;;;;;-7.86;73.98;101271.74;1834941;78;21050;-87
2022/03/10 02:55:10;;;;;;;16.93;7.20;;;;;;;-7.90;74.23;101271.08;1838188;78;21077;-87
2022/03/10 02:57:37;;;;;;;14.57;7.00;;;;;;;-7.92;74.29;101274.35;1830912;78;21070;-86
2022/03/10 03:00:06;;;;;;;14.37;7.20;;;;;;;-7.96;74.37;101274.56;1836594;78;21218;-87
2022/03/10 03:02:34;;;;;;;20.25;7.67;;;;;;;-7.99;74.53;101282.08;1838402;78;21035;-87
2022/03/10 03:05:01;;;;;;;17.90;8.00;;;;;;;-8.02;74.61;101281.91;1838317;78;20932;-86
2022/03/10 03:07:29;;;;;;;21.03;7.83;;;;;;;-8.04;74.97;101288.61;1832584;77;21026;-85
2022/03/10 03:09:56;;;;;;;17.67;7.70;;;;;;;-8.10;75.22;101284.02;1837734;78;20968;-87
2022/03/10 03:12:22;;;;;;;14.37;7.17;;;;;;;-8.10;75.29;101297.20;1821611;78;21179;-84
2022/03/10 03:14:51;;;;;;;14.53;6.80;;;;;;;-8.17;75.75;101288.70;1839276;78;20999;-86
2022/03/10 03:17:18;;;;;;;14.90;7.60;;;;;;;-8.12;75.94;101298.41;1837706;78;20984;-86
2022/03/10 03:19:44;;;;;;;17.57;7.60;;;;;;;-8.11;76.19;101304.00;1826905;78;21035;-88
2022/03/10 03:22:10;;;;;;;18.90;7.50;;;;;;;-8.14;76.24;101309.31;1839350;77;20988;-86
2022/03/10 03:24:38;;;;;;;14.90;8.03;;;;;;;-8.13;76.37;101307.27;1820751;78;21347;-87
2022/03/10 03:27:05;;;;;;;16.90;8.00;;;;;;;-8.13;76.24;101304.70;1834917;78;21018;-89
2022/03/10 03:29:34;;;;;;;17.27;8.77;;;;;;;-8.20;76.48;101316.66;1838213;77;20960;-86
2022/03/10 03:32:00;;;;;;;19.87;8.27;;;;;;;-8.22;76.52;101327.66;1839952;78;20992;-86
2022/03/10 03:34:26;;;;;;;17.47;8.43;;;;;;;-8.24;76.45;101329.23;1820939;77;20988;-88
2022/03/10 03:36:54;;;;;;;15.27;7.73;;;;;;;-8.27;76.68;101329.07;1836351;78;20983;-88
2022/03/10 03:39:20;;;;;;;20.50;9.10;;;;;;;-8.28;76.70;101329.88;1828277;78;20964;-88
2022/03/10 03:41:48;;;;;;;15.03;7.53;;;;;;;-8.33;76.73;101327.42;1803775;78;20987;-87
2022/03/10 03:44:15;;;;;;;17.00;7.77;;;;;;;-8.34;77.01;101332.06;1828790;77;21035;-85
2022/03/10 03:46:42;;;;;;;19.13;9.03;;;;;;;-8.35;77.21;101335.43;1826563;77;20829;-88
2022/03/10 03:49:09;;;;;;;15.30;8.53;;;;;;;-8.38;77.44;101340.34;1836744;78;21151;-85
2022/03/10 03:51:37;;;;;;;22.40;9.20;;;;;;;-8.40;77.69;101341.95;1840176;78;21077;-84
2022/03/10 03:54:05;;;;;;;21.70;8.67;;;;;;;-8.41;77.83;101349.14;1836679;78;20992;-83
2022/03/10 03:56:37;;;;;;;16.57;7.85;;;;;;;-8.43;78.03;101344.34;1840168;78;21005;-86
2022/03/10 03:59:05;;;;;;;21.87;8.70;;;;;;;-8.43;77.97;101352.00;1836266;77;21063;-86
2022/03/10 04:01:34;;;;;;;21.40;8.87;;;;;;;-8.44;77.89;101352.81;1838679;78;21015;-86
2022/03/10 04:04:01;;;;;;;25.60;9.13;;;;;;;-8.47;77.80;101351.33;1834158;78;20988;-88
2022/03/10 04:06:27;;;;;;;17.63;7.73;;;;;;;-8.49;77.72;101355.09;1824298;78;21048;-87
2022/03/10 04:08:55;;;;;;;21.90;9.27;;;;;;;-8.47;77.86;101355.16;1833481;78;21002;-87
2022/03/10 04:11:23;;;;;;;18.70;8.67;;;;;;;-8.50;77.67;101353.31;1825313;78;20989;-90
2022/03/10 04:13:51;;;;;;;16.53;7.80;;;;;;;-8.50;77.57;101348.60;1839443;77;20909;-88
2022/03/10 04:16:18;;;;;;;17.57;8.83;;;;;;;-8.49;77.71;101360.57;1835720;77;20993;-88
2022/03/10 04:18:45;;;;;;;19.33;8.13;;;;;;;-8.50;77.73;101362.66;1839219;78;21097;-87
2022/03/10 04:21:13;;;;;;;23.37;9.57;;;;;;;-8.50;77.60;101358.82;1822471;78;20992;-86
2022/03/10 04:23:40;;;;;;;22.03;9.63;;;;;;;-8.49;77.61;101365.67;1822949;78;21078;-86
2022/03/10 04:26:07;;;;;;;21.87;9.80;;;;;;;-8.49;77.54;101364.41;1837436;78;21283;-86
2022/03/10 04:28:35;;;;;;;23.87;9.80;;;;;;;-8.47;77.41;101374.32;1833052;77;20976;-84
2022/03/10 04:31:02;;;;;;;26.77;10.20;;;;;;;-8.49;77.43;101374.62;1840173;78;20966;-87
2022/03/10 04:33:30;;;;;;;21.83;10.00;;;;;;;-8.47;77.41;101376.47;1830302;78;20908;-85
2022/03/10 04:35:58;;;;;;;19.07;10.43;;;;;;;-8.45;77.23;101376.58;1832571;78;20999;-86
2022/03/10 04:38:25;;;;;;;21.47;9.70;;;;;;;-8.44;76.99;101378.36;1840215;77;21252;-85
2022/03/10 04:40:52;;;;;;;20.03;9.93;;;;;;;-8.42;77.00;101384.81;1824568;77;20928;-81
2022/03/10 04:43:19;;;;;;;18.80;8.40;;;;;;;-8.45;77.21;101383.84;1837724;77;20940;-85
2022/03/10 04:45:46;;;;;;;24.27;8.93;;;;;;;-8.41;77.03;101386.19;1836594;77;20975;-85
2022/03/10 04:48:14;;;;;;;17.83;8.83;;;;;;;-8.37;77.07;101385.55;1840299;77;20967;-81
2022/03/10 04:50:40;;;;;;;18.70;8.83;;;;;;;-8.37;77.24;101389.39;1836395;77;21251;-87
2022/03/10 04:53:07;;;;;;;16.83;8.77;;;;;;;-8.31;77.15;101391.01;1833935;77;21035;-87
2022/03/10 04:55:35;;;;;;;18.57;8.13;;;;;;;-8.26;77.06;101397.30;1827483;78;21036;-85
2022/03/10 04:58:04;;;;;;;19.17;9.17;;;;;;;-8.23;76.99;101394.91;1839462;78;20951;-87
2022/03/10 05:00:32;;;;;;;21.25;10.18;;;;;;;-8.17;76.77;101408.83;1821538;77;20967;-87
2022/03/10 05:03:00;;;;;;;24.00;10.17;;;;;;;-8.12;76.94;101406.14;1830486;78;21178;-87
2022/03/10 05:05:27;;;;;;;24.40;11.13;;;;;;;-8.05;76.86;101410.82;1839056;78;20983;-87
2022/03/10 05:07:55;;;;;;;26.73;12.37;;;;;;;-7.96;76.50;101418.16;1836739;78;21503;-86
2022/03/10 05:10:23;;;;;;;28.75;11.75;;;;;;;-7.92;76.25;101414.58;1837444;78;21066;-87
2022/03/10 05:12:56;;;;;;;24.70;10.73;;;;;;;-7.84;76.12;101426.16;1836915;78;21126;-87
2022/03/10 05:15:26;;;;;;;24.67;10.73;;;;;;;-7.71;76.00;101421.73;1838441;78;21457;-87
2022/03/10 05:17:54;;;;;;;21.13;10.37;;;;;;;-7.15;75.29;101417.66;1826315;78;21277;-87
2022/03/10 05:20:20;;;;;;;23.53;10.37;;;;;;;-6.38;72.58;101421.73;1826715;78;20980;-87
2022/03/10 05:22:54;;;;;;;23.57;10.43;;;;;;;-5.62;71.48;101413.14;1838917;78;20975;-88
2022/03/10 05:25:22;;;;;;;21.80;8.23;;;;;;;-4.83;69.94;101419.41;1826937;78;20927;-86
2022/03/10 05:27:49;;;;;;;20.85;8.95;;;;;;;-4.04;65.05;101420.38;1838942;78;21067;-87
2022/03/10 05:30:18;;;;;;;21.50;9.20;;;;;;;-3.46;62.01;101421.05;1830988;78;21036;-86
2022/03/10 05:32:45;;;;;;;19.32;7.92;;;;;;;-2.91;61.03;101414.62;1827389;78;21074;-86
2022/03/10 05:35:17;;;;;;;15.13;8.53;;;;;;;-2.45;58.18;101419.80;1838774;78;20956;-87
2022/03/10 05:37:46;;;;;;;18.25;8.75;;;;;;;-1.95;57.02;101423.30;1837303;78;21170;-87
2022/03/10 05:40:17;;;;;;;19.65;9.23;;;;;;;-1.41;55.24;101412.58;1833225;78;21214;-87
2022/03/10 05:42:45;;;;;;;20.70;8.35;;;;;;;-0.90;52.55;101421.10;1836270;78;21106;-87
2022/03/10 05:45:12;;;;;;;15.95;7.62;;;;;;;-0.62;51.12;101419.73;1841054;78;20975;-85
2022/03/10 05:47:41;;;;;;;16.10;7.55;;;;;;;-0.43;48.93;101423.33;1840846;76;21015;-88
2022/03/10 05:50:10;;;;;;;15.32;7.80;;;;;;;-0.26;48.25;101425.95;1827596;77;21072;-89
2022/03/10 05:52:36;;;;;;;15.40;7.97;;;;;;;-0.11;48.64;101425.94;1819957;78;21093;-88
2022/03/10 05:55:05;;;;;;;14.35;7.62;;;;;;;0.14;47.64;101428.77;1835549;78;20983;-87
2022/03/10 05:57:31;;;;;;;13.83;7.03;;;;;;;0.34;46.92;101425.38;1838809;78;21007;-86
2022/03/10 05:59:58;;;;;;;13.75;7.10;;;;;;;0.54;46.35;101424.59;1825151;78;21037;-88
2022/03/10 06:02:24;;;;;;;12.85;6.87;;;;;;;0.54;45.61;101428.05;1828387;78;21107;-88
2022/03/10 06:04:52;;;;;;;15.60;7.70;;;;;;;0.62;47.02;101425.23;1819873;77;21542;-88
2022/03/10 06:07:20;;;;;;;14.30;8.00;;;;;;;0.89;45.56;101422.83;1831910;78;20972;-87
2022/03/10 06:09:46;;;;;;;14.85;7.97;;;;;;;1.12;46.23;101425.08;1838095;78;20995;-86
2022/03/10 06:12:13;;;;;;;16.97;7.90;;;;;;;1.40;44.75;101426.54;1825937;78;20929;-87
2022/03/10 06:14:39;;;;;;;17.87;9.05;;;;;;;1.63;43.65;101440.90;1834529;78;21059;-87
2022/03/10 06:17:07;;;;;;;12.58;7.12;;;;;;;1.67;42.18;101439.22;1835504;78;21198;-87
2022/03/10 06:19:35;;;;;;;16.02;8.53;;;;;;;1.65;43.76;101438.31;1839081;78;21030;-88
2022/03/10 06:22:04;;;;;;;15.83;10.05;;;;;;;1.80;42.19;101431.27;1835155;77;20960;-85
2022/03/10 06:24:30;;;;;;;16.55;8.30;;;;;;;1.91;41.84;101432.75;1839234;78;21104;-87
2022/03/10 06:26:58;;;;;;;15.23;8.40;;;;;;;1.99;42.18;101437.69;1822378;77;20937;-86
2022/03/10 06:29:25;;;;;;;13.75;7.78;;;;;;;2.29;42.07;101430.88;1836363;77;21044;-88
2022/03/10 06:31:52;;;;;;;14.45;8.70;;;;;;;2.59;40.89;101430.52;1832074;77;20866;-84
2022/03/10 06:34:20;;;;;;;15.78;8.85;;;;;;;2.90;40.86;101427.13;1831754;77;20948;-88
2022/03/10 06:36:47;;;;;;;17.00;12.43;;;;;;;3.15;39.80;101435.73;1838441;77;21000;-84
2022/03/10 06:39:14;;;;;;;33.85;23.62;;;;;;;2.85;37.68;101432.66;1840440;77;21058;-83
2022/03/10 06:41:41;;;;;;;16.48;9.18;;;;;;;2.71;39.00;101434.64;1831787;78;21028;-86
2022/03/10 06:44:08;;;;;;;18.60;8.08;;;;;;;2.67;38.50;101438.47;1837480;78;21621;-89
2022/03/10 06:46:34;;;;;;;12.93;7.37;;;;;;;2.71;38.54;101442.84;1819177;78;21046;-88
2022/03/10 06:49:02;;;;;;;13.58;7.03;;;;;;;2.85;39.94;101435.26;1835375;78;21011;-87
2022/03/10 06:51:29;;;;;;;15.60;8.10;;;;;;;3.12;39.90;101440.00;1839157;78;20984;-88
2022/03/10 06:53:55;;;;;;;18.62;10.60;;;;;;;3.28;37.35;101451.52;1822404;76;21211;-88
2022/03/10 06:56:21;;;;;;;14.95;8.05;;;;;;;3.08;38.02;101446.02;1839930;78;21062;-88
2022/03/10 06:58:48;;;;;;;22.17;12.53;;;;;;;3.12;38.83;101451.28;1836812;77;20983;-85
2022/03/10 07:01:14;;;;;;;11.55;6.60;;;;;;;3.41;37.45;101455.17;1820424;76;21078;-87
2022/03/10 07:03:41;;;;;;;12.93;6.67;;;;;;;3.51;37.26;101453.13;1834933;78;21089;-89
2022/03/10 07:06:08;;;;;;;13.13;6.55;;;;;;;3.62;36.58;101449.37;1840321;78;21219;-89
2022/03/10 07:08:37;;;;;;;14.18;7.00;;;;;;;3.82;37.57;101458.70;1839245;78;20980;-88
2022/03/10 07:11:06;;;;;;;14.40;7.37;;;;;;;4.20;36.81;101460.45;1833923;76;21064;-88
2022/03/10 07:13:34;;;;;;;13.70;7.70;;;;;;;4.51;35.91;101450.30;1831983;76;20967;-87
2022/03/10 07:16:01;;;;;;;12.23;6.33;;;;;;;4.66;35.37;101444.36;1839976;78;20980;-89
2022/03/10 07:18:27;;;;;;;14.40;6.85;;;;;;;4.57;34.56;101446.45;1828718;76;21836;-86
2022/03/10 07:20:54;;;;;;;14.40;9.00;;;;;;;4.41;34.71;101447.61;1821253;78;21154;-88
2022/03/10 07:23:21;;;;;;;13.95;6.78;;;;;;;4.33;34.96;101446.68;1820841;78;21028;-87
2022/03/10 07:25:47;;;;;;;25.43;9.53;;;;;;;4.34;35.30;101448.41;1838353;78;21063;-86
2022/03/10 07:28:14;;;;;;;18.87;9.08;;;;;;;4.43;34.83;101442.42;1832286;76;21014;-85
2022/03/10 07:30:40;;;;;;;18.40;8.65;;;;;;;4.46;34.61;101442.88;1841019;78;21181;-87
2022/03/10 07:33:07;;;;;;;18.42;7.92;;;;;;;4.45;34.19;101447.66;1837982;76;20999;-89
2022/03/10 07:35:34;;;;;;;16.05;7.40;;;;;;;4.47;34.73;101440.73;1830347;76;21006;-88
2022/03/10 07:38:02;;;;;;;11.18;5.58;;;;;;;4.78;34.15;101437.48;1838198;78;21039;-87
2022/03/10 07:40:29;;;;;;;9.00;5.47;;;;;;;5.15;32.00;101429.91;1841009;77;21259;-89
2022/03/10 07:42:55;;;;;;;9.40;5.40;;;;;;;5.24;32.06;101443.45;1840108;76;22008;-87
2022/03/10 07:45:22;;;;;;;11.63;6.35;;;;;;;5.13;31.79;101438.19;1837100;77;21014;-88
2022/03/10 07:47:49;;;;;;;7.37;4.78;;;;;;;5.06;31.90;101431.16;1840106;77;20992;-89
2022/03/10 07:50:15;;;;;;;9.20;5.10;;;;;;;5.08;31.72;101434.66;1828206;77;21578;-89
2022/03/10 07:52:42;;;;;;;9.40;5.33;;;;;;;5.12;31.44;101435.12;1838482;78;21106;-88
2022/03/10 07:55:13;;;;;;;8.53;4.75;;;;;;;5.31;30.01;101428.70;1825792;78;21196;-88
2022/03/10 07:57:38;;;;;;;8.05;4.60;;;;;;;5.10;28.86;101444.67;1834390;78;21046;-86
2022/03/10 08:00:06;;;;;;;16.35;6.80;;;;;;;5.01;29.96;101435.48;1823743;78;21028;-90
2022/03/10 08:02:36;;;;;;;10.90;6.47;;;;;;;5.02;30.08;101433.33;1837854;78;20972;-89
2022/03/10 08:05:04;;;;;;;7.72;4.45;;;;;;;5.09;29.70;101432.50;1827840;78;21039;-87
2022/03/10 08:07:32;;;;;;;16.50;5.95;;;;;;;5.29;29.21;101437.85;1831613;77;21297;-88
2022/03/10 08:10:01;;;;;;;8.75;5.45;;;;;;;5.41;29.03;101433.98;1837122;78;20991;-88
2022/03/10 08:12:33;;;;;;;28.85;8.30;;;;;;;5.83;28.56;101432.85;1838004;78;21035;-87
2022/03/10 08:14:57;;;;;;;26.20;8.88;;;;;;;6.18;28.61;101429.05;1836924;77;21027;-88
2022/03/10 08:17:25;;;;;;;11.55;6.22;;;;;;;6.50;27.99;101431.70;1835544;78;21099;-88
2022/03/10 08:19:53;;;;;;;16.12;5.75;;;;;;;6.61;27.56;101440.00;1836422;78;21282;-88
2022/03/10 08:22:21;;;;;;;15.60;6.25;;;;;;;6.39;26.85;101438.66;1839649;78;20980;-88
2022/03/10 08:24:48;;;;;;;9.68;4.80;;;;;;;5.82;27.38;101441.55;1826090;77;21082;-88
2022/03/10 08:27:15;;;;;;;12.95;5.60;;;;;;;5.63;28.21;101438.86;1835271;78;20936;-89
2022/03/10 08:29:42;;;;;;;6.85;4.00;;;;;;;5.91;28.73;101442.88;1837073;77;20842;-85
2022/03/10 08:32:09;;;;;;;8.28;3.85;;;;;;;6.11;27.24;101446.04;1830190;77;21190;-87
2022/03/10 08:34:36;;;;;;;7.22;3.85;;;;;;;6.30;26.70;101439.95;1820556;78;20976;-84
2022/03/10 08:37:03;;;;;;;8.55;4.17;;;;;;;6.29;25.72;101442.15;1840264;77;21019;-86
2022/03/10 08:39:30;;;;;;;11.60;4.80;;;;;;;6.32;26.00;101438.22;1830083;78;21087;-87
2022/03/10 08:41:57;;;;;;;12.82;4.37;;;;;;;6.38;26.72;101438.69;1828880;78;21584;-87
2022/03/10 08:44:23;;;;;;;9.00;4.60;;;;;;;6.49;25.80;101433.89;1824858;78;21101;-87
2022/03/10 08:46:50;;;;;;;9.98;4.80;;;;;;;6.66;26.94;101439.56;1834604;78;20960;-89
2022/03/10 08:49:17;;;;;;;11.15;4.67;;;;;;;7.01;26.77;101435.59;1831644;76;20979;-86
2022/03/10 08:51:45;;;;;;;10.23;4.90;;;;;;;7.24;24.36;101418.52;1836668;78;21098;-86
2022/03/10 08:54:12;;;;;;;14.35;5.75;;;;;;;6.97;24.16;101450.01;1839210;78;21066;-87
2022/03/10 08:56:39;;;;;;;10.25;5.42;;;;;;;6.77;24.66;101453.97;1824232;77;21229;-89
2022/03/10 08:59:06;;;;;;;15.53;7.50;;;;;;;6.33;24.98;101463.53;1839107;78;20987;-87
2022/03/10 09:01:34;;;;;;;8.43;4.25;;;;;;;5.99;24.92;101467.36;1820578;76;20975;-87
2022/03/10 09:04:00;;;;;;;50.73;11.73;;;;;;;5.81;25.69;101460.73;1775501;79;21053;-87
2022/03/10 09:06:29;;;;;;;10.72;4.53;;;;;;;5.80;26.35;101461.17;1775661;80;21020;-86
2022/03/10 09:08:55;;;;;;;8.70;4.72;;;;;;;6.01;24.03;101463.02;1775574;79;21543;-86
2022/03/10 09:11:22;;;;;;;10.20;4.40;;;;;;;5.98;24.12;101472.58;1753231;79;21024;-86
2022/03/10 09:13:49;;;;;;;14.70;5.42;;;;;;;5.77;23.71;101456.34;1756580;81;21081;-88
2022/03/10 09:16:19;;;;;;;14.55;5.10;;;;;;;5.54;24.60;101450.58;1756293;79;21056;-88
2022/03/10 09:18:48;;;;;;;8.28;4.25;;;;;;;5.43;25.44;101447.94;1756463;77;21057;-85
2022/03/10 09:21:16;;;;;;;11.63;5.67;;;;;;;5.43;25.83;101440.54;1739887;77;21175;-86
2022/03/10 09:23:43;;;;;;;9.05;4.00;;;;;;;5.23;25.86;101460.87;1746747;80;21142;-87
2022/03/10 09:26:09;;;;;;;9.98;3.72;;;;;;;5.32;26.00;101456.58;1775336;80;21869;-86
2022/03/10 09:28:38;;;;;;;7.05;3.75;;;;;;;5.55;25.16;101447.12;1755294;81;21794;-87
2022/03/10 09:31:05;;;;;;;7.78;4.05;;;;;;;5.67;24.92;101461.54;1762985;80;21138;-88
2022/03/10 09:33:32;;;;;;;12.35;4.42;;;;;;;5.90;24.75;101449.00;1770558;79;21489;-87
2022/03/10 09:35:58;;;;;;;12.30;4.25;;;;;;;5.82;25.49;101449.39;1753612;79;20993;-89
2022/03/10 09:38:25;;;;;;;9.40;4.10;;;;;;;5.91;25.81;101444.19;1745998;82;21599;-89
2022/03/10 09:40:54;;;;;;;11.83;4.33;;;;;;;5.88;25.40;101458.13;1777208;80;20980;-87
2022/03/10 09:43:27;;;;;;;11.40;4.12;;;;;;;5.87;24.43;101451.61;1758141;81;20947;-88
2022/03/10 09:45:53;;;;;;;9.33;3.92;;;;;;;5.92;23.85;101455.55;1757441;81;21315;-88
2022/03/10 09:48:20;;;;;;;8.65;4.40;;;;;;;5.86;24.66;101460.30;1762323;79;21045;-88
2022/03/10 09:50:47;;;;;;;9.18;4.08;;;;;;;6.04;26.08;101451.24;1754801;81;21543;-86
2022/03/10 09:53:15;;;;;;;9.25;3.77;;;;;;;6.27;24.67;101449.12;1755804;79;21036;-89
2022/03/10 09:55:42;;;;;;;12.10;5.35;;;;;;;6.33;25.34;101445.22;1744917;82;21661;-86
2022/03/10 09:58:10;;;;;;;14.07;5.45;;;;;;;6.49;24.21;101456.14;1777238;79;22864;-88
2022/03/10 10:00:39;;;;;;;10.68;4.08;;;;;;;6.26;22.36;101439.09;1778279;79;21004;-87
2022/03/10 10:03:06;;;;;;;9.05;4.17;;;;;;;6.02;23.25;101441.20;1756297;79;21076;-87
2022/03/10 10:05:37;;;;;;;7.90;4.67;;;;;;;5.83;23.74;101448.54;1766944;79;21078;-89
2022/03/10 10:08:17;;;;;;;8.13;4.72;;;;;;;5.47;23.69;101442.27;1817596;79;21046;-87
2022/03/10 10:10:50;;;;;;;9.33;3.73;;;;;;;5.33;25.24;101432.19;1804591;78;21272;-88
2022/03/10 10:13:33;;;;;;;9.00;4.53;;;;;;;5.33;24.41;101449.17;1816838;77;21231;-90
2022/03/10 10:16:05;;;;;;;6.75;3.83;;;;;;;5.33;23.94;101436.11;1775552;80;21023;-88
2022/03/10 10:18:34;;;;;;;12.58;5.40;;;;;;;5.41;24.32;101435.30;1756355;81;21501;-87
2022/03/10 10:21:01;;;;;;;11.33;5.35;;;;;;;5.32;23.66;101435.69;1756243;81;21010;-88
2022/03/10 10:23:33;;;;;;;8.68;5.17;;;;;;;5.26;23.99;101436.06;1756067;81;21385;-88
2022/03/10 10:26:12;;;;;;;7.25;4.08;;;;;;;5.09;23.56;101432.94;1755817;81;20989;-89
2022/03/10 10:28:43;;;;;;;7.03;3.92;;;;;;;4.84;25.52;101436.23;1756694;81;20955;-87
2022/03/10 10:31:16;;;;;;;10.03;4.80;;;;;;;4.95;24.78;101439.38;1757988;78;21018;-85
2022/03/10 10:34:01;;;;;;;7.47;4.15;;;;;;;5.07;24.95;101429.00;1763033;77;20946;-87
2022/03/10 10:36:30;;;;;;;8.55;4.33;;;;;;;5.17;24.45;101416.42;1772868;80;21563;-88
2022/03/10 10:39:07;;;;;;;13.15;5.08;;;;;;;5.17;24.67;101424.70;1767525;81;21005;-88
2022/03/10 10:41:34;;;;;;;7.20;3.92;;;;;;;4.97;25.05;101431.09;1762894;81;20985;-88
2022/03/10 10:44:05;;;;;;;7.62;3.60;;;;;;;5.05;24.74;101420.28;1767412;81;20997;-87
2022/03/10 10:46:38;;;;;;;9.15;3.65;;;;;;;5.25;24.48;101423.89;1766634;81;21540;-86
2022/03/10 10:49:15;;;;;;;8.28;3.30;;;;;;;5.40;24.95;101433.53;1765648;81;21949;-87
2022/03/10 10:51:57;;;;;;;8.45;4.15;;;;;;;5.23;24.49;101438.67;1762501;81;21010;-88
2022/03/10 10:54:27;;;;;;;8.30;3.60;;;;;;;5.01;23.93;101435.48;1763128;81;21058;-87
2022/03/10 10:56:58;;;;;;;7.60;3.25;;;;;;;4.77;24.20;101440.97;1762907;81;21007;-86
2022/03/10 10:59:36;;;;;;;5.90;3.72;;;;;;;4.63;24.75;101435.64;1762986;81;21104;-87
2022/03/10 11:02:12;;;;;;;10.45;3.40;;;;;;;4.36;25.31;101433.66;1762452;81;21220;-85
2022/03/10 11:04:41;;;;;;;7.60;3.72;;;;;;;4.30;24.99;101444.06;1762948;81;21010;-88
2022/03/10 11:07:09;;;;;;;7.25;3.50;;;;;;;4.19;25.77;101443.94;1762481;81;21066;-85
2022/03/10 11:09:37;;;;;;;9.60;3.90;;;;;;;4.29;25.43;101440.98;1759088;80;21078;-89
2022/03/10 11:12:08;;;;;;;7.20;3.42;;;;;;;4.24;24.45;101445.28;1764263;81;21010;-87
2022/03/10 11:14:37;;;;;;;7.62;3.92;;;;;;;4.03;24.79;101448.98;1763159;81;21165;-88
2022/03/10 11:17:05;;;;;;;7.50;3.65;;;;;;;4.10;25.12;101450.80;1762121;81;21017;-87
2022/03/10 11:19:37;;;;;;;7.00;3.02;;;;;;;4.20;25.67;101436.98;1762118;81;21101;-87
2022/03/10 11:22:43;;;;;;;5.05;2.95;;;;;;;4.46;24.81;101443.73;1760293;81;20995;-88
2022/03/10 11:25:31;;;;;;;7.33;3.00;;;;;;;4.66;25.62;101439.14;1757280;80;21045;-88
2022/03/10 11:28:10;;;;;;;6.47;3.08;;;;;;;4.90;24.64;101433.22;1827454;77;21218;-84
2022/03/10 11:30:38;;;;;;;8.15;2.98;;;;;;;4.93;23.73;101427.61;1826766;77;20981;-86
2022/03/10 11:33:09;;;;;;;5.95;2.60;;;;;;;4.56;23.93;101422.55;1830459;77;20972;-88
2022/03/10 11:35:41;;;;;;;5.92;3.55;;;;;;;4.44;23.95;101430.24;1827585;78;21023;-88
2022/03/10 11:38:09;;;;;;;5.87;3.08;;;;;;;4.24;23.99;101430.95;1837390;78;21012;-86
2022/03/10 11:40:52;;;;;;;6.95;3.47;;;;;;;3.96;23.43;101436.31;1829866;78;21219;-87
2022/03/10 11:43:33;;;;;;;6.40;2.95;;;;;;;3.70;24.13;101429.48;1838058;78;21094;-88
2022/03/10 11:46:20;;;;;;;9.48;3.17;;;;;;;3.54;24.53;101430.61;1824206;78;20984;-87
2022/03/10 11:49:12;;;;;;;9.75;2.92;;;;;;;3.43;25.47;101428.30;1825207;78;21030;-88
2022/03/10 11:51:56;;;;;;;7.08;2.95;;;;;;;3.32;25.13;101423.37;1827456;76;21023;-86
2022/03/10 11:54:29;;;;;;;5.80;3.00;;;;;;;3.10;24.91;101425.66;1838274;78;21158;-88
2022/03/10 11:57:03;;;;;;;9.85;3.40;;;;;;;2.76;25.86;101419.50;1839814;78;21586;-90
2022/03/10 11:59:39;;;;;;;12.18;3.80;;;;;;;2.81;27.01;101411.38;1840392;78;21058;-86
2022/03/10 12:02:07;;;;;;;6.80;2.60;;;;;;;2.81;25.12;101416.57;1841546;77;20991;-88
2022/03/10 12:04:38;;;;;;;6.65;2.83;;;;;;;2.68;25.39;101419.39;1841766;77;21654;-84
2022/03/10 12:07:07;;;;;;;8.28;2.75;;;;;;;2.70;26.25;101415.96;1842273;77;21089;-85
2022/03/10 12:09:39;;;;;;;13.08;4.08;;;;;;;2.77;25.92;101409.56;1840629;76;20983;-87